Time;durP1;ratioP1;P1;durP2;ratioP2;P2;SDS_P1;SDS_P2;PMS_P1;PMS_P2;Temp;Humidity;BMP_temperature;BMP_pressure;BME280_temperature;BME280_humidity;BME280_pressure;Samples;Min_cycle;Max_cycle;Signal;HPM_P1;HPM_P2
2022/07/16 00:01:46;;;;;;;9.10;3.72;;;16.60;99.90;;;;;;5056716;28;19993;-59
2022/07/16 00:04:12;;;;;;;;;;;16.60;99.90;;;;;;5056847;28;20052;-60
2022/07/16 00:06:39;;;;;;;10.15;3.55;;;16.50;99.90;;;;;;5056669;28;19924;-59
2022/07/16 00:09:06;;;;;;;;;;;16.40;99.90;;;;;;5053021;28;20045;-59
2022/07/16 00:11:33;;;;;;;8.63;4.40;;;16.40;99.90;;;;;;5035815;28;19925;-59
2022/07/16 00:14:00;;;;;;;;;;;16.30;99.90;;;;;;5036814;28;20057;-58
2022/07/16 00:16:26;;;;;;;8.27;3.75;;;16.30;99.90;;;;;;5036262;28;19924;-59
2022/07/16 00:21:39;;;;;;;7.63;3.55;;;16.20;99.90;;;;;;5036551;28;19924;-57
2022/07/16 00:24:07;;;;;;;6.22;3.58;;;16.10;99.90;;;;;;5036083;28;20102;-59
2022/07/16 00:26:34;;;;;;;6.13;3.42;;;16.10;99.90;;;;;;5035906;28;20075;-59
2022/07/16 00:29:01;;;;;;;10.02;3.70;;;16.10;99.90;;;;;;5037478;28;20041;-59
2022/07/16 00:31:28;;;;;;;11.82;4.13;;;16.00;99.90;;;;;;5055982;28;20177;-60
2022/07/16 00:33:55;;;;;;;9.30;4.15;;;15.90;99.90;;;;;;5055836;28;20036;-58
2022/07/16 00:36:22;;;;;;;;;;;15.90;99.90;;;;;;5055450;28;20048;-60
2022/07/16 00:38:49;;;;;;;7.45;3.88;;;15.80;99.90;;;;;;5056286;28;19924;-59
2022/07/16 00:41:18;;;;;;;;;;;15.80;99.90;;;;;;5056689;28;20044;-60
2022/07/16 00:43:46;;;;;;;6.85;3.70;;;15.70;99.90;;;;;;5055425;28;19981;-58
2022/07/16 00:46:15;;;;;;;14.57;4.60;;;15.70;99.90;;;;;;5045729;28;20048;-60
2022/07/16 00:48:43;;;;;;;5.60;3.60;;;15.70;99.90;;;;;;5054733;28;20045;-59
2022/07/16 00:51:10;;;;;;;10.00;4.10;;;15.60;99.90;;;;;;5055569;28;20055;-59
2022/07/16 00:53:38;;;;;;;9.45;4.13;;;15.60;99.90;;;;;;5052927;28;20132;-60
2022/07/16 00:56:13;;;;;;;11.80;4.38;;;15.50;99.90;;;;;;5035742;28;20052;-58
2022/07/16 00:58:42;;;;;;;6.45;3.72;;;15.50;99.90;;;;;;5056232;28;20052;-58
2022/07/16 01:01:09;;;;;;;6.68;3.65;;;15.40;99.90;;;;;;5055423;28;20052;-60
2022/07/16 01:03:37;;;;;;;8.40;3.70;;;15.50;99.90;;;;;;5037093;28;20102;-58
2022/07/16 01:06:06;;;;;;;8.15;4.05;;;15.50;99.90;;;;;;5054825;28;20055;-58
2022/07/16 01:08:35;;;;;;;9.40;3.60;;;15.40;99.90;;;;;;5055556;28;20044;-59
2022/07/16 01:11:05;;;;;;;9.95;3.50;;;15.40;99.90;;;;;;5040211;28;20045;-60
2022/07/16 01:13:34;;;;;;;15.40;3.75;;;15.40;99.90;;;;;;5045015;28;20041;-58
2022/07/16 01:16:02;;;;;;;6.60;3.80;;;15.40;99.90;;;;;;5035529;28;20136;-60
2022/07/16 01:18:30;;;;;;;7.00;3.60;;;15.40;99.90;;;;;;5035618;28;20843;-59
2022/07/16 01:20:57;;;;;;;5.30;3.28;;;15.30;99.90;;;;;;5036014;28;20064;-58
2022/07/16 01:23:25;;;;;;;6.47;3.88;;;15.30;99.90;;;;;;5035027;28;20049;-58
2022/07/16 01:25:53;;;;;;;6.97;3.65;;;15.30;99.90;;;;;;5035229;28;20041;-58
2022/07/16 01:28:20;;;;;;;6.10;3.55;;;15.30;99.90;;;;;;5036173;28;20040;-58
2022/07/16 01:30:48;;;;;;;10.07;3.97;;;15.20;99.90;;;;;;5050011;28;20752;-59
2022/07/16 01:33:25;;;;;;;6.03;3.33;;;15.20;99.90;;;;;;5055103;28;20051;-59
2022/07/16 01:36:00;;;;;;;;;;;15.20;99.90;;;;;;5055391;28;20052;-59
2022/07/16 01:38:27;;;;;;;5.95;3.20;;;15.10;99.90;;;;;;5055289;28;19920;-59
2022/07/16 01:40:55;;;;;;;9.35;3.35;;;15.10;99.90;;;;;;5054770;28;20048;-60
2022/07/16 01:43:27;;;;;;;4.55;3.58;;;15.10;99.90;;;;;;5055067;28;20052;-58
2022/07/16 01:45:55;;;;;;;8.35;3.60;;;15.10;99.90;;;;;;5046845;28;20052;-60
2022/07/16 01:48:23;;;;;;;9.10;4.28;;;15.10;99.90;;;;;;5030462;28;20041;-57
2022/07/16 01:50:50;;;;;;;6.90;3.53;;;15.00;99.90;;;;;;5035032;28;20055;-57
2022/07/16 01:53:18;;;;;;;6.00;3.45;;;15.00;99.90;;;;;;5037653;28;20041;-59
2022/07/16 01:55:45;;;;;;;6.15;3.33;;;15.00;99.90;;;;;;5053345;28;20056;-59
2022/07/16 01:58:14;;;;;;;7.32;4.47;;;14.90;99.90;;;;;;5054585;28;20759;-59
2022/07/16 02:00:44;;;;;;;7.60;3.55;;;14.90;99.90;;;;;;5054761;28;20846;-59
2022/07/16 02:03:11;;;;;;;4.20;3.53;;;14.90;99.90;;;;;;5054051;28;20060;-57
2022/07/16 02:05:39;;;;;;;7.25;3.63;;;14.90;99.90;;;;;;5054127;28;21042;-60
2022/07/16 02:08:06;;;;;;;6.65;3.65;;;14.80;99.90;;;;;;5053772;28;20040;-59
2022/07/16 02:10:34;;;;;;;5.78;4.30;;;14.80;99.90;;;;;;5037759;28;20134;-57
2022/07/16 02:13:02;;;;;;;5.25;3.55;;;14.70;99.90;;;;;;5033815;28;20033;-60
2022/07/16 02:15:30;;;;;;;7.88;3.58;;;14.70;99.90;;;;;;5034200;28;20512;-58
2022/07/16 02:17:57;;;;;;;6.20;3.97;;;14.60;99.90;;;;;;5034855;28;20051;-60
2022/07/16 02:20:24;;;;;;;4.65;3.92;;;14.60;99.90;;;;;;5034400;28;20045;-60
2022/07/16 02:22:55;;;;;;;;;;;14.60;99.90;;;;;;5034195;28;20535;-60
2022/07/16 02:25:23;;;;;;;7.20;3.88;;;14.60;99.90;;;;;;5033602;28;19924;-58
2022/07/16 02:28:06;;;;;;;3.97;3.58;;;14.60;99.90;;;;;;5034932;28;20736;-59
2022/07/16 02:30:47;;;;;;;8.30;4.38;;;14.60;99.90;;;;;;5046789;28;20055;-58
2022/07/16 02:33:16;;;;;;;12.23;4.75;;;14.60;99.90;;;;;;5054063;28;20036;-59
2022/07/16 02:35:44;;;;;;;5.25;3.78;;;14.50;99.90;;;;;;5053964;28;20056;-58
2022/07/16 02:38:12;;;;;;;11.32;5.25;;;14.50;99.90;;;;;;5036598;28;20602;-58
2022/07/16 02:40:40;;;;;;;5.75;3.97;;;14.40;99.90;;;;;;5054256;28;20098;-58
2022/07/16 02:43:08;;;;;;;7.53;3.90;;;14.50;99.90;;;;;;5053617;28;20057;-59
2022/07/16 02:45:38;;;;;;;4.95;4.10;;;14.40;99.90;;;;;;5048417;28;20862;-58
2022/07/16 02:48:05;;;;;;;9.60;4.25;;;14.40;99.90;;;;;;5034441;28;20102;-59
2022/07/16 02:50:33;;;;;;;4.80;4.05;;;14.40;99.90;;;;;;5034333;28;20043;-58
2022/07/16 02:52:59;;;;;;;6.03;4.38;;;14.40;99.90;;;;;;5033589;28;20052;-59
2022/07/16 02:55:26;;;;;;;5.70;4.78;;;14.40;99.90;;;;;;5044630;28;20455;-58
2022/07/16 02:57:53;;;;;;;4.38;3.92;;;14.30;99.90;;;;;;5053852;28;20048;-59
2022/07/16 03:00:21;;;;;;;6.47;4.38;;;14.30;99.90;;;;;;5053407;28;20443;-59
2022/07/16 03:02:48;;;;;;;5.22;4.05;;;14.20;99.90;;;;;;5052478;28;20474;-57
2022/07/16 03:05:15;;;;;;;6.07;4.78;;;14.20;99.90;;;;;;5053213;28;20071;-60
2022/07/16 03:07:42;;;;;;;;;;;14.20;99.90;;;;;;5054924;28;20044;-59
2022/07/16 03:10:10;;;;;;;6.32;4.47;;;14.10;99.90;;;;;;5053317;28;19927;-59
2022/07/16 03:12:38;;;;;;;7.68;4.88;;;14.00;99.90;;;;;;5017805;28;20504;-58
2022/07/16 03:15:06;;;;;;;8.05;4.85;;;14.00;99.90;;;;;;5033297;28;20075;-60
2022/07/16 03:17:34;;;;;;;7.38;4.68;;;13.90;99.90;;;;;;5033857;28;20057;-59
2022/07/16 03:20:01;;;;;;;6.57;4.55;;;13.90;99.90;;;;;;5037655;28;20044;-59
2022/07/16 03:22:28;;;;;;;6.30;4.50;;;13.90;99.90;;;;;;5037057;28;20056;-61
2022/07/16 03:24:55;;;;;;;;;;;13.90;99.90;;;;;;5038196;28;20785;-60
2022/07/16 03:27:22;;;;;;;7.05;4.75;;;13.90;99.90;;;;;;5036973;28;19931;-59
2022/07/16 03:29:49;;;;;;;;;;;13.90;99.90;;;;;;5027432;28;20071;-59
2022/07/16 03:32:16;;;;;;;8.98;5.07;;;13.80;99.90;;;;;;5057074;28;20716;-59
2022/07/16 03:34:42;;;;;;;;;;;13.80;99.90;;;;;;5057421;28;20036;-58
2022/07/16 03:37:09;;;;;;;6.35;4.13;;;13.80;99.90;;;;;;5038538;28;19925;-59
2022/07/16 03:39:36;;;;;;;;;;;13.80;99.90;;;;;;5056293;28;20041;-59
2022/07/16 03:42:03;;;;;;;4.35;3.45;;;13.80;99.90;;;;;;5056494;28;19920;-57
2022/07/16 03:44:30;;;;;;;6.65;4.03;;;13.80;99.90;;;;;;5056617;28;20041;-57
2022/07/16 03:46:56;;;;;;;5.25;4.20;;;13.70;99.90;;;;;;5055514;28;20041;-59
2022/07/16 03:49:23;;;;;;;;;;;13.70;99.90;;;;;;5057740;28;20035;-58
2022/07/16 03:51:50;;;;;;;7.15;5.53;;;13.70;99.90;;;;;;5057273;28;19925;-56
2022/07/16 03:54:17;;;;;;;;;;;13.70;99.90;;;;;;5057055;28;20136;-59
2022/07/16 03:56:43;;;;;;;7.10;5.13;;;13.70;99.90;;;;;;5055233;28;20443;-60
2022/07/16 03:59:10;;;;;;;;;;;13.60;99.90;;;;;;5057045;28;20049;-57
2022/07/16 04:01:38;;;;;;;9.85;5.70;;;13.60;99.90;;;;;;5038734;28;20822;-60
2022/07/16 04:04:05;;;;;;;11.45;5.22;;;13.60;99.90;;;;;;5056829;28;20040;-60
2022/07/16 04:06:32;;;;;;;7.82;4.78;;;13.50;99.90;;;;;;5056360;28;20072;-58
2022/07/16 04:08:59;;;;;;;6.63;5.07;;;13.50;99.90;;;;;;5053717;28;20083;-58
2022/07/16 04:11:26;;;;;;;8.65;5.28;;;13.60;99.90;;;;;;5036012;28;20068;-59
2022/07/16 04:13:52;;;;;;;5.85;4.45;;;13.60;99.90;;;;;;5036643;28;20040;-58
2022/07/16 04:16:20;;;;;;;6.63;4.63;;;13.60;99.90;;;;;;5035260;28;20045;-59
2022/07/16 04:18:47;;;;;;;7.18;4.93;;;13.60;99.90;;;;;;5036829;28;20049;-58
2022/07/16 04:21:14;;;;;;;8.80;4.82;;;13.70;99.90;;;;;;5036776;28;20037;-60
2022/07/16 04:23:41;;;;;;;;;;;13.70;99.90;;;;;;5034948;28;20037;-58
2022/07/16 04:26:08;;;;;;;5.55;4.80;;;13.70;99.90;;;;;;5036180;28;19948;-61
2022/07/16 04:28:34;;;;;;;;;;;13.70;99.90;;;;;;5036575;28;20048;-58
2022/07/16 04:31:01;;;;;;;9.00;6.47;;;13.70;99.90;;;;;;5051928;28;19928;-60
2022/07/16 04:33:28;;;;;;;;;;;13.70;99.90;;;;;;5056815;28;20051;-60
2022/07/16 04:35:55;;;;;;;8.70;5.40;;;13.70;99.90;;;;;;5038504;28;20754;-59
2022/07/16 04:38:22;;;;;;;;;;;13.70;99.90;;;;;;5057338;28;20048;-60
2022/07/16 04:40:48;;;;;;;8.55;5.75;;;13.80;99.90;;;;;;5055813;28;19924;-57
2022/07/16 04:43:15;;;;;;;;;;;13.80;99.90;;;;;;5057058;28;20913;-59
2022/07/16 04:45:42;;;;;;;8.13;4.97;;;13.80;99.90;;;;;;5049306;28;19933;-59
2022/07/16 04:48:09;;;;;;;;;;;13.80;99.90;;;;;;5037318;28;20048;-59
2022/07/16 04:50:36;;;;;;;7.00;4.40;;;13.90;99.90;;;;;;5035690;28;19932;-59
2022/07/16 04:53:03;;;;;;;8.65;4.20;;;14.00;99.90;;;;;;5035029;28;20099;-59
2022/07/16 04:55:29;;;;;;;;;;;14.00;99.90;;;;;;5036237;28;20115;-60
2022/07/16 04:57:56;;;;;;;8.32;5.18;;;14.10;99.90;;;;;;5017196;28;19924;-61
2022/07/16 05:00:26;;;;;;;8.93;4.95;;;14.10;99.90;;;;;;5056092;28;20048;-59
2022/07/16 05:02:56;;;;;;;6.43;5.13;;;14.20;99.90;;;;;;5055937;28;20055;-59
2022/07/16 05:05:25;;;;;;;9.13;5.90;;;14.20;99.90;;;;;;5055205;28;20106;-60
2022/07/16 05:07:52;;;;;;;9.80;4.95;;;14.30;99.90;;;;;;5055397;28;20037;-60
2022/07/16 05:10:19;;;;;;;12.45;5.82;;;14.40;99.90;;;;;;5037531;28;20049;-60
2022/07/16 05:12:47;;;;;;;9.80;5.68;;;14.50;99.90;;;;;;5051600;28;20037;-60
2022/07/16 05:15:14;;;;;;;8.95;5.55;;;14.60;99.90;;;;;;5018112;28;20049;-60
2022/07/16 05:17:40;;;;;;;9.13;5.55;;;14.60;99.90;;;;;;5035759;28;20868;-48
2022/07/16 05:20:08;;;;;;;7.45;5.72;;;14.70;99.90;;;;;;5034929;28;20404;-51
2022/07/16 05:22:35;;;;;;;7.97;5.35;;;14.80;99.90;;;;;;5035802;28;20072;-51
2022/07/16 05:25:02;;;;;;;;;;;14.90;99.90;;;;;;5033520;28;20428;-52
2022/07/16 05:27:29;;;;;;;15.13;5.95;;;15.00;99.90;;;;;;5035909;28;19921;-54
2022/07/16 05:29:56;;;;;;;;;;;15.10;99.90;;;;;;5044055;28;20029;-50
2022/07/16 05:32:23;;;;;;;9.20;5.20;;;15.20;99.90;;;;;;5055802;28;19920;-52
2022/07/16 05:34:49;;;;;;;;;;;15.20;99.90;;;;;;5055505;28;20128;-52
2022/07/16 05:37:16;;;;;;;7.82;4.90;;;15.30;99.90;;;;;;5054871;28;19932;-50
2022/07/16 05:39:43;;;;;;;5.82;4.57;;;15.40;99.90;;;;;;5055742;28;20137;-49
2022/07/16 05:42:10;;;;;;;;;;;15.40;99.90;;;;;;5054918;28;20051;-50
2022/07/16 05:44:37;;;;;;;10.27;5.43;;;15.50;99.90;;;;;;5054556;28;19928;-51
2022/07/16 05:47:05;;;;;;;7.15;5.18;;;15.60;99.90;;;;;;5038285;28;20701;-50
2022/07/16 05:49:31;;;;;;;9.80;5.40;;;15.70;99.90;;;;;;5017883;28;20045;-52
2022/07/16 05:52:02;;;;;;;7.35;4.80;;;15.80;99.90;;;;;;5034928;28;20119;-52
2022/07/16 05:54:29;;;;;;;5.68;4.57;;;15.80;99.90;;;;;;5035181;28;20037;-51
2022/07/16 05:56:55;;;;;;;;;;;15.90;99.90;;;;;;5018272;28;20048;-52
2022/07/16 05:59:23;;;;;;;8.73;5.93;;;16.00;99.90;;;;;;5052717;28;19924;-49
2022/07/16 06:01:50;;;;;;;7.57;5.18;;;16.00;99.90;;;;;;5055045;28;20151;-50
2022/07/16 06:04:17;;;;;;;;;;;16.10;99.90;;;;;;5054370;28;20157;-50
2022/07/16 06:06:44;;;;;;;17.37;5.50;;;16.20;99.90;;;;;;5054417;28;19927;-50
2022/07/16 06:09:11;;;;;;;;;;;16.20;99.90;;;;;;5049902;28;20052;-51
2022/07/16 06:11:38;;;;;;;9.88;5.55;;;16.30;99.90;;;;;;5034550;28;20035;-48
2022/07/16 06:14:05;;;;;;;8.85;5.10;;;16.40;99.90;;;;;;5033775;28;20087;-51
2022/07/16 06:16:32;;;;;;;;;;;16.50;99.90;;;;;;5035278;28;20049;-51
2022/07/16 06:18:59;;;;;;;7.57;4.28;;;16.60;99.90;;;;;;5016972;28;19924;-51
2022/07/16 06:21:26;;;;;;;7.15;3.80;;;16.60;99.90;;;;;;5034303;28;20728;-51
2022/07/16 06:23:53;;;;;;;;;;;16.80;99.90;;;;;;5035383;28;20052;-50
2022/07/16 06:26:20;;;;;;;7.80;3.97;;;17.00;99.90;;;;;;5033918;28;19932;-51
2022/07/16 06:28:47;;;;;;;7.25;3.85;;;17.10;99.90;;;;;;5016340;28;20956;-51
2022/07/16 06:31:14;;;;;;;11.73;3.83;;;17.30;99.90;;;;;;5052453;28;20048;-52
2022/07/16 06:33:41;;;;;;;;;;;17.40;99.90;;;;;;5054726;28;20051;-50
2022/07/16 06:36:07;;;;;;;6.45;3.22;;;17.60;99.90;;;;;;5035186;28;19974;-51
2022/07/16 06:38:34;;;;;;;5.60;4.05;;;17.70;99.90;;;;;;5054853;28;20474;-51
2022/07/16 06:41:01;;;;;;;7.28;3.70;;;17.80;99.90;;;;;;5054733;28;20094;-49
2022/07/16 06:43:28;;;;;;;7.38;3.58;;;17.90;99.90;;;;;;5053875;28;20048;-50
2022/07/16 06:45:55;;;;;;;7.20;3.78;;;18.10;99.90;;;;;;5045435;28;20040;-49
2022/07/16 06:48:22;;;;;;;;;;;18.20;99.90;;;;;;5035613;28;20580;-50
2022/07/16 06:50:50;;;;;;;6.15;4.25;;;18.40;99.90;;;;;;5035390;28;19936;-51
2022/07/16 06:53:16;;;;;;;10.27;4.13;;;18.50;99.90;;;;;;5033056;28;20364;-51
2022/07/16 06:55:43;;;;;;;9.00;3.58;;;18.60;99.90;;;;;;5038584;28;20049;-48
2022/07/16 06:58:10;;;;;;;9.48;3.72;;;18.70;99.90;;;;;;5040434;28;20052;-50
2022/07/16 07:00:37;;;;;;;12.07;4.32;;;18.90;99.90;;;;;;5056355;28;20041;-63
2022/07/16 07:03:04;;;;;;;5.18;3.60;;;19.00;99.90;;;;;;5058511;28;20051;-62
2022/07/16 07:05:31;;;;;;;4.47;3.95;;;19.00;99.90;;;;;;5053809;28;20076;-62
2022/07/16 07:07:58;;;;;;;8.52;4.18;;;19.10;99.90;;;;;;5038661;28;20037;-60
2022/07/16 07:10:25;;;;;;;9.10;4.53;;;19.20;99.90;;;;;;5052628;28;20048;-61
2022/07/16 07:12:52;;;;;;;10.32;4.18;;;19.20;99.90;;;;;;5019670;28;20051;-63
2022/07/16 07:15:19;;;;;;;6.18;3.80;;;19.30;99.90;;;;;;5037461;28;20044;-63
2022/07/16 07:17:46;;;;;;;5.43;3.60;;;19.40;99.90;;;;;;5038215;28;20044;-63
2022/07/16 07:20:13;;;;;;;7.25;3.88;;;19.50;99.90;;;;;;5037557;28;21050;-64
2022/07/16 07:22:49;;;;;;;7.22;4.10;;;19.50;99.90;;;;;;5038156;28;20726;-58
2022/07/16 07:25:16;;;;;;;9.05;4.20;;;19.60;99.90;;;;;;5037705;28;20094;-62
2022/07/16 07:27:43;;;;;;;6.28;3.67;;;19.70;99.90;;;;;;5037580;28;20624;-61
2022/07/16 07:30:11;;;;;;;6.70;4.15;;;19.70;99.90;;;;;;5037398;28;21054;-61
2022/07/16 07:32:38;;;;;;;6.93;3.90;;;19.80;99.90;;;;;;5037245;28;20091;-62
2022/07/16 07:35:06;;;;;;;7.78;4.05;;;19.80;99.90;;;;;;5036882;28;20041;-64
2022/07/16 07:37:34;;;;;;;11.95;4.07;;;19.90;99.90;;;;;;5037783;28;20115;-64
2022/07/16 07:40:06;;;;;;;4.90;3.40;;;20.00;99.90;;;;;;5038076;28;20053;-64
2022/07/16 07:42:33;;;;;;;7.32;3.85;;;20.00;99.90;;;;;;5037341;28;20043;-67
2022/07/16 07:44:59;;;;;;;9.73;3.63;;;20.00;99.90;;;;;;5019817;28;20068;-63
2022/07/16 07:47:28;;;;;;;11.48;5.00;;;20.10;95.00;;;;;;5038339;28;20147;-61
2022/07/16 07:49:55;;;;;;;5.18;3.05;;;20.10;98.90;;;;;;5034816;28;20048;-59
2022/07/16 07:52:22;;;;;;;6.32;3.38;;;20.20;98.20;;;;;;5037608;28;20041;-63
2022/07/16 07:54:49;;;;;;;6.82;3.47;;;20.20;99.50;;;;;;5035309;28;20040;-59
2022/07/16 07:57:15;;;;;;;5.63;3.15;;;20.40;99.90;;;;;;5037355;28;20041;-61
2022/07/16 07:59:42;;;;;;;8.70;3.30;;;20.50;97.20;;;;;;5043148;28;20042;-61
2022/07/16 08:02:09;;;;;;;7.03;3.58;;;20.60;99.90;;;;;;5055586;28;20047;-58
2022/07/16 08:04:36;;;;;;;5.28;3.33;;;20.80;99.90;;;;;;5038139;28;20063;-61
2022/07/16 08:07:04;;;;;;;10.45;3.38;;;21.00;99.90;;;;;;5056738;28;20048;-62
2022/07/16 08:09:31;;;;;;;6.95;3.50;;;21.10;95.60;;;;;;5036295;28;20056;-61
2022/07/16 08:11:58;;;;;;;7.43;2.88;;;21.30;96.10;;;;;;5030795;28;20444;-59
2022/07/16 08:14:25;;;;;;;6.53;3.08;;;21.50;97.00;;;;;;5039920;28;20044;-62
2022/07/16 08:16:58;;;;;;;7.90;3.42;;;21.70;93.10;;;;;;5036652;28;20057;-63
2022/07/16 08:19:25;;;;;;;6.93;2.97;;;21.90;92.10;;;;;;5036897;28;20045;-57
2022/07/16 08:21:53;;;;;;;9.60;3.53;;;22.10;91.10;;;;;;5018697;28;20131;-61
2022/07/16 08:27:06;;;;;;;8.27;3.33;;;22.70;85.80;;;;;;5018264;28;20049;-61
2022/07/16 08:29:33;;;;;;;10.05;3.20;;;23.10;81.50;;;;;;5040319;28;20047;-62
2022/07/16 08:32:00;;;;;;;9.50;3.28;;;23.40;80.20;;;;;;5057000;28;20054;-60
2022/07/16 08:34:27;;;;;;;7.65;2.88;;;23.80;79.60;;;;;;5056150;28;20700;-58
2022/07/16 08:36:54;;;;;;;10.38;3.50;;;24.10;75.90;;;;;;5056717;28;20044;-61
2022/07/16 08:39:22;;;;;;;6.72;3.15;;;24.30;73.60;;;;;;5056965;28;20163;-60
2022/07/16 08:41:50;;;;;;;8.23;3.20;;;24.50;69.30;;;;;;5056207;28;20048;-61
2022/07/16 08:44:17;;;;;;;7.57;2.67;;;24.70;66.70;;;;;;5054714;28;20056;-59
2022/07/16 08:46:44;;;;;;;8.73;2.33;;;24.90;65.40;;;;;;5043529;28;20123;-59
2022/07/16 08:49:10;;;;;;;4.60;2.50;;;25.00;61.00;;;;;;5036336;28;20048;-57
2022/07/16 08:51:39;;;;;;;6.43;2.83;;;25.20;59.90;;;;;;5034204;28;20055;-57
2022/07/16 08:54:15;;;;;;;8.15;2.28;;;25.40;61.80;;;;;;5036331;28;20180;-58
2022/07/16 08:56:46;;;;;;;8.45;2.70;;;25.60;57.00;;;;;;5035772;28;20040;-62
2022/07/16 08:59:13;;;;;;;9.13;2.85;;;25.70;57.10;;;;;;5036521;28;20056;-60
2022/07/16 09:01:41;;;;;;;6.38;2.20;;;25.70;55.50;;;;;;5030864;28;20052;-62
2022/07/16 09:04:08;;;;;;;9.38;2.60;;;25.70;56.60;;;;;;5055414;28;20064;-61
2022/07/16 09:06:35;;;;;;;6.40;2.72;;;25.80;56.70;;;;;;5055342;28;20049;-60
2022/07/16 09:09:02;;;;;;;13.63;3.00;;;25.80;54.00;;;;;;5056251;28;20591;-60
2022/07/16 09:11:32;;;;;;;5.88;2.55;;;25.80;53.50;;;;;;5053848;28;20508;-61
2022/07/16 09:14:06;;;;;;;10.07;3.30;;;25.80;54.40;;;;;;5041971;28;20459;-62
2022/07/16 09:16:38;;;;;;;9.02;2.80;;;25.90;54.20;;;;;;5034903;28;20041;-62
2022/07/16 09:19:11;;;;;;;11.20;3.30;;;26.00;53.10;;;;;;5035812;28;20059;-59
2022/07/16 09:21:58;;;;;;;3.42;2.00;;;25.90;51.60;;;;;;5034449;28;20799;-59
2022/07/16 09:24:43;;;;;;;7.15;3.00;;;25.90;53.40;;;;;;5035163;28;20120;-62
2022/07/16 09:27:11;;;;;;;19.08;3.00;;;26.00;53.40;;;;;;5036337;28;20784;-62
2022/07/16 09:29:51;;;;;;;11.00;2.97;;;26.10;54.50;;;;;;5041198;28;20037;-62
2022/07/16 09:32:45;;;;;;;12.98;2.92;;;26.30;54.60;;;;;;5054736;28;20102;-62
2022/07/16 09:35:14;;;;;;;5.68;2.47;;;26.30;52.30;;;;;;5034151;28;20526;-61
2022/07/16 09:37:59;;;;;;;7.53;3.15;;;26.50;53.60;;;;;;5054017;28;20113;-60
2022/07/16 09:40:35;;;;;;;9.38;3.03;;;26.70;50.80;;;;;;5055082;28;20060;-62
2022/07/16 09:43:12;;;;;;;9.23;3.03;;;26.90;51.80;;;;;;5055739;28;20067;-62
2022/07/16 09:45:44;;;;;;;9.38;2.63;;;27.00;51.60;;;;;;5054628;28;20063;-64
2022/07/16 09:48:22;;;;;;;4.13;2.25;;;27.00;50.80;;;;;;5053878;28;20047;-61
2022/07/16 09:50:51;;;;;;;7.93;2.65;;;27.10;50.70;;;;;;5037355;28;20052;-61
2022/07/16 09:53:21;;;;;;;5.85;2.30;;;27.10;50.90;;;;;;5055535;28;20060;-60
2022/07/16 09:56:04;;;;;;;6.68;2.75;;;27.20;48.80;;;;;;5036558;28;20151;-62
2022/07/16 09:58:32;;;;;;;6.30;2.90;;;27.20;48.20;;;;;;5055526;28;20059;-61
2022/07/16 10:01:00;;;;;;;4.78;2.70;;;27.30;49.10;;;;;;5054744;28;20048;-60
2022/07/16 10:03:28;;;;;;;11.30;3.15;;;27.30;49.70;;;;;;5041947;28;20063;-62
2022/07/16 10:05:55;;;;;;;10.38;2.88;;;27.40;49.50;;;;;;5021215;28;20765;-61
2022/07/16 10:08:23;;;;;;;3.80;2.20;;;27.50;47.80;;;;;;5055010;28;20044;-61
2022/07/16 10:10:51;;;;;;;2.40;2.15;;;27.50;48.70;;;;;;5017674;28;20040;-64
2022/07/16 10:13:23;;;;;;;4.97;2.40;;;27.60;48.30;;;;;;5033776;28;20045;-60
2022/07/16 10:15:51;;;;;;;9.35;2.83;;;27.70;47.20;;;;;;5034841;28;20053;-61
2022/07/16 10:18:34;;;;;;;11.75;2.90;;;27.80;49.20;;;;;;5034723;28;20049;-60
2022/07/16 10:21:12;;;;;;;5.85;2.65;;;27.90;47.00;;;;;;5035075;28;20576;-60
2022/07/16 10:23:42;;;;;;;4.47;2.38;;;27.90;47.30;;;;;;5033832;28;20041;-60
2022/07/16 10:26:14;;;;;;;5.78;2.38;;;27.90;46.50;;;;;;5016913;28;20053;-61
2022/07/16 10:28:43;;;;;;;6.65;2.67;;;28.10;47.90;;;;;;5035204;28;20037;-63
2022/07/16 10:31:38;;;;;;;4.05;2.47;;;28.10;47.60;;;;;;5052116;28;20510;-59
2022/07/16 10:34:15;;;;;;;8.95;3.10;;;28.10;46.00;;;;;;5052780;28;20056;-60
2022/07/16 10:36:54;;;;;;;8.07;2.42;;;28.10;46.00;;;;;;5053853;28;20115;-62
2022/07/16 10:39:25;;;;;;;4.25;2.30;;;28.10;46.60;;;;;;5036967;28;20143;-56
2022/07/16 10:41:55;;;;;;;4.30;2.85;;;28.20;46.30;;;;;;5052951;28;20672;-58
2022/07/16 10:44:25;;;;;;;2.83;2.10;;;28.30;46.30;;;;;;5036101;28;20052;-57
2022/07/16 10:46:53;;;;;;;7.63;2.45;;;28.40;44.70;;;;;;5039794;28;20140;-57
2022/07/16 10:49:21;;;;;;;3.72;2.55;;;28.40;44.50;;;;;;5034865;28;20045;-58
2022/07/16 10:52:00;;;;;;;8.60;2.45;;;28.40;45.10;;;;;;5051919;28;20529;-61
2022/07/16 10:54:37;;;;;;;7.68;2.90;;;28.40;47.10;;;;;;5054332;28;20118;-62
2022/07/16 10:57:07;;;;;;;4.38;2.63;;;28.40;46.80;;;;;;5054378;28;20037;-59
2022/07/16 10:59:41;;;;;;;4.97;2.35;;;28.50;47.10;;;;;;5054585;28;20041;-57
2022/07/16 11:02:11;;;;;;;4.50;2.67;;;28.50;46.50;;;;;;5054070;28;20867;-61
2022/07/16 11:04:41;;;;;;;3.30;2.38;;;28.50;45.20;;;;;;5048206;28;20178;-61
2022/07/16 11:07:17;;;;;;;3.28;1.90;;;28.60;46.30;;;;;;5054165;28;20110;-62
2022/07/16 11:09:46;;;;;;;5.73;2.83;;;28.80;45.20;;;;;;5053611;28;20793;-62
2022/07/16 11:12:18;;;;;;;5.07;2.60;;;28.80;44.00;;;;;;5054155;28;20044;-61
2022/07/16 11:14:50;;;;;;;4.38;2.17;;;28.80;44.40;;;;;;5033662;28;20041;-61
2022/07/16 11:17:21;;;;;;;3.58;2.22;;;28.90;44.30;;;;;;5016217;28;20862;-58
2022/07/16 11:19:55;;;;;;;8.07;2.92;;;29.00;44.20;;;;;;5034239;28;20124;-60
2022/07/16 11:22:26;;;;;;;5.78;2.40;;;29.00;43.20;;;;;;5032800;28;20901;-61
2022/07/16 11:24:56;;;;;;;8.15;2.70;;;29.00;43.70;;;;;;5016167;28;20049;-61
2022/07/16 11:27:28;;;;;;;7.43;3.53;;;29.00;44.50;;;;;;5034664;28;20037;-60
2022/07/16 11:30:00;;;;;;;9.75;2.45;;;28.90;44.60;;;;;;5041903;28;20044;-60
2022/07/16 11:32:28;;;;;;;4.65;2.35;;;28.90;43.90;;;;;;5054024;28;20722;-62
2022/07/16 11:34:55;;;;;;;4.50;3.00;;;29.00;46.40;;;;;;5053937;28;20050;-61
2022/07/16 11:37:22;;;;;;;5.13;2.72;;;29.10;43.60;;;;;;5051468;28;20133;-60
2022/07/16 11:39:58;;;;;;;4.28;2.20;;;29.10;43.90;;;;;;5056194;28;20548;-62
2022/07/16 11:42:25;;;;;;;8.80;2.40;;;29.10;43.60;;;;;;5056774;28;20559;-57
2022/07/16 11:44:52;;;;;;;4.45;2.53;;;29.20;45.10;;;;;;5055723;28;20048;-62
2022/07/16 11:47:19;;;;;;;11.50;2.80;;;29.20;43.30;;;;;;5039320;28;20132;-62
2022/07/16 11:49:49;;;;;;;5.72;2.38;;;29.40;42.80;;;;;;5037683;28;20098;-62
2022/07/16 11:52:21;;;;;;;5.03;2.90;;;29.40;43.90;;;;;;5037755;28;20135;-59
2022/07/16 11:54:50;;;;;;;10.15;2.60;;;29.50;42.50;;;;;;5036241;28;20055;-62
2022/07/16 11:57:17;;;;;;;4.70;2.58;;;29.60;42.60;;;;;;5037496;28;20052;-60
2022/07/16 11:59:55;;;;;;;5.40;2.47;;;29.70;42.90;;;;;;5036741;28;20045;-61
2022/07/16 12:02:25;;;;;;;9.13;2.78;;;29.70;41.60;;;;;;5037893;28;20056;-62
2022/07/16 12:04:56;;;;;;;4.13;2.25;;;29.60;42.40;;;;;;5050948;28;20041;-62
2022/07/16 12:07:27;;;;;;;6.38;2.50;;;29.60;44.00;;;;;;5057186;28;20044;-59
2022/07/16 12:09:57;;;;;;;6.72;2.70;;;29.70;42.10;;;;;;5045648;28;20041;-60
2022/07/16 12:12:34;;;;;;;7.00;2.95;;;29.70;43.40;;;;;;5035100;28;20049;-62
2022/07/16 12:15:12;;;;;;;9.77;3.15;;;29.60;43.70;;;;;;5019218;28;20049;-62
2022/07/16 12:17:46;;;;;;;4.80;2.63;;;29.60;45.70;;;;;;5036622;28;20073;-60
2022/07/16 12:20:21;;;;;;;4.07;2.47;;;29.60;44.40;;;;;;5037075;28;20059;-59
2022/07/16 12:23:02;;;;;;;4.45;2.60;;;29.60;43.10;;;;;;5035785;28;20147;-59
2022/07/16 12:25:31;;;;;;;3.40;2.47;;;29.80;43.00;;;;;;5035876;28;20059;-59
2022/07/16 12:28:05;;;;;;;6.18;2.05;;;29.70;44.50;;;;;;5037278;28;20052;-58
2022/07/16 12:30:35;;;;;;;4.95;2.47;;;29.80;43.30;;;;;;5049664;28;20072;-61
2022/07/16 12:33:09;;;;;;;8.10;2.33;;;29.80;43.50;;;;;;5056623;28;20400;-62
2022/07/16 12:35:46;;;;;;;17.00;3.20;;;29.80;44.00;;;;;;5056638;28;20044;-60
2022/07/16 12:38:52;;;;;;;16.02;3.03;;;29.90;44.80;;;;;;5056369;28;20036;-58
2022/07/16 12:41:23;;;;;;;4.45;2.38;;;30.00;41.70;;;;;;5056386;28;20053;-60
2022/07/16 12:43:56;;;;;;;8.60;2.53;;;30.10;41.40;;;;;;5054816;28;20135;-59
2022/07/16 12:46:50;;;;;;;8.45;2.78;;;30.10;42.20;;;;;;5045782;28;20045;-57
2022/07/16 12:49:25;;;;;;;5.90;2.85;;;30.10;43.00;;;;;;5014019;28;20053;-62
2022/07/16 12:51:56;;;;;;;4.85;2.72;;;30.10;41.00;;;;;;5016819;28;20048;-59
2022/07/16 12:54:24;;;;;;;7.45;2.70;;;30.20;41.00;;;;;;5035295;28;20048;-62
2022/07/16 12:59:36;;;;;;;9.38;2.67;;;30.30;42.80;;;;;;5036657;28;20052;-61
2022/07/16 13:02:07;;;;;;;6.70;2.80;;;30.40;41.60;;;;;;5034767;28;20517;-58
2022/07/16 13:04:34;;;;;;;7.15;2.70;;;30.40;42.40;;;;;;5041037;28;20042;-60
2022/07/16 13:07:03;;;;;;;4.50;2.10;;;30.30;43.20;;;;;;5054700;28;20703;-61
2022/07/16 13:09:30;;;;;;;32.92;3.40;;;30.30;42.50;;;;;;5056442;28;20512;-61
2022/07/16 13:11:57;;;;;;;7.45;2.90;;;30.40;41.90;;;;;;5025901;28;20045;-61
2022/07/16 13:14:24;;;;;;;3.95;1.95;;;30.50;41.20;;;;;;5035338;28;20047;-60